Time;durP1;ratioP1;P1;durP2;ratioP2;P2;SDS_P1;SDS_P2;PMS_P1;PMS_P2;Temp;Humidity;BMP_temperature;BMP_pressure;BME280_temperature;BME280_humidity;BME280_pressure;Samples;Min_cycle;Max_cycle;Signal;HPM_P1;HPM_P2
2022/09/06 00:00:25;;;;;;;;;;;21.90;99.90;;;;;;8408227;28;19928;-73
2022/09/06 00:04:27;;;;;;;;;;;21.90;99.90;;;;;;8417781;28;19944;-73
2022/09/06 00:08:28;;;;;;;;;;;21.70;99.90;;;;;;8408048;28;19935;-74
2022/09/06 00:12:30;;;;;;;;;;;21.70;99.90;;;;;;8403002;28;19920;-73
2022/09/06 00:16:31;;;;;;;;;;;21.70;99.90;;;;;;8413240;28;19920;-74
2022/09/06 00:20:33;;;;;;;;;;;21.70;99.90;;;;;;8402150;28;19920;-74
2022/09/06 00:24:36;;;;;;;;;;;21.70;99.90;;;;;;8402631;28;19927;-73
2022/09/06 00:28:38;;;;;;;;;;;21.70;99.90;;;;;;8409170;28;19971;-74
2022/09/06 00:32:40;;;;;;;;;;;21.70;99.90;;;;;;8403851;28;20383;-73
2022/09/06 00:36:41;;;;;;;;;;;21.70;99.90;;;;;;8418257;28;19928;-73
2022/09/06 00:40:43;;;;;;;;;;;21.70;99.90;;;;;;8422494;28;19920;-73
2022/09/06 00:44:45;;;;;;;;;;;21.70;99.90;;;;;;8423696;28;20386;-74
2022/09/06 00:48:48;;;;;;;;;;;21.60;99.90;;;;;;8425023;28;19927;-73
2022/09/06 00:52:51;;;;;;;;;;;21.60;99.90;;;;;;8419014;28;19920;-73
2022/09/06 00:56:53;;;;;;;;;;;21.50;99.90;;;;;;8405305;28;19924;-73
2022/09/06 01:00:54;;;;;;;;;;;21.40;99.90;;;;;;8418455;28;20383;-74
2022/09/06 01:04:56;;;;;;;;;;;21.40;99.90;;;;;;8418711;28;20237;-73
2022/09/06 01:09:02;;;;;;;;;;;21.40;99.90;;;;;;8426390;28;19951;-73
2022/09/06 01:13:22;;;;;;;;;;;21.40;99.90;;;;;;8420621;28;19930;-74
2022/09/06 01:17:27;;;;;;;;;;;21.40;99.90;;;;;;8403641;28;19967;-73
2022/09/06 01:21:45;;;;;;;;;;;21.30;99.90;;;;;;8423302;28;20272;-73
2022/09/06 01:25:53;;;;;;;;;;;21.30;99.90;;;;;;8416309;28;19920;-73
2022/09/06 01:30:00;;;;;;;;;;;21.20;99.90;;;;;;8428223;28;19920;-74
2022/09/06 01:34:02;;;;;;;;;;;21.20;99.90;;;;;;8419142;28;19920;-73
2022/09/06 01:38:04;;;;;;;;;;;21.10;99.90;;;;;;8405369;28;19939;-73
2022/09/06 01:42:14;;;;;;;;;;;21.10;99.90;;;;;;8411838;28;20331;-74
2022/09/06 01:46:28;;;;;;;;;;;21.00;99.90;;;;;;8420050;28;19919;-73
2022/09/06 01:50:45;;;;;;;;;;;20.90;99.90;;;;;;8416827;28;19927;-73
2022/09/06 01:54:56;;;;;;;;;;;20.80;99.90;;;;;;8395724;28;19939;-73
2022/09/06 01:59:14;;;;;;;;;;;20.70;99.90;;;;;;8419151;28;19931;-73
2022/09/06 02:03:51;;;;;;;;;;;20.70;99.90;;;;;;8413643;28;19919;-73
2022/09/06 02:07:56;;;;;;;;;;;20.80;99.90;;;;;;8280660;28;19920;-73
2022/09/06 02:11:59;;;;;;;;;;;20.80;99.90;;;;;;8399877;28;19932;-73
2022/09/06 02:16:02;;;;;;;;;;;20.80;99.90;;;;;;8423645;28;21105;-73
2022/09/06 02:20:07;;;;;;;;;;;20.70;99.90;;;;;;8406525;28;20019;-74
2022/09/06 02:24:10;;;;;;;;;;;20.60;99.90;;;;;;8421453;28;19923;-73
2022/09/06 02:28:12;;;;;;;;;;;20.50;99.90;;;;;;8432189;28;20022;-73
2022/09/06 02:32:24;;;;;;;;;;;20.40;99.90;;;;;;8413650;28;19942;-73
2022/09/06 02:36:26;;;;;;;;;;;20.40;99.90;;;;;;8411788;28;19928;-74
2022/09/06 02:40:28;;;;;;;;;;;20.40;99.90;;;;;;8391762;28;19927;-73
2022/09/06 02:44:29;;;;;;;;;;;20.40;99.90;;;;;;8421758;28;19920;-73
2022/09/06 02:48:31;;;;;;;;;;;20.30;99.90;;;;;;8414932;28;19931;-73
2022/09/06 02:52:33;;;;;;;;;;;20.40;99.90;;;;;;8409300;28;19927;-73
2022/09/06 02:56:35;;;;;;;;;;;20.40;99.90;;;;;;8423829;28;19920;-73
2022/09/06 03:00:37;;;;;;;;;;;20.40;99.90;;;;;;8421016;28;20015;-73
2022/09/06 03:04:38;;;;;;;;;;;20.40;99.90;;;;;;8416089;28;19924;-73
2022/09/06 03:08:40;;;;;;;;;;;20.40;99.90;;;;;;8403318;28;20390;-74
2022/09/06 03:12:42;;;;;;;;;;;20.40;99.90;;;;;;8395801;28;19928;-73
2022/09/06 03:16:44;;;;;;;;;;;20.40;99.90;;;;;;8412962;28;19920;-73
2022/09/06 03:20:47;;;;;;;;;;;20.30;99.90;;;;;;8411266;28;20367;-74
2022/09/06 03:24:49;;;;;;;;;;;20.30;99.90;;;;;;8397304;28;19924;-73
2022/09/06 03:28:50;;;;;;;;;;;20.20;99.90;;;;;;8418076;28;19920;-73
2022/09/06 03:32:52;;;;;;;;;;;20.20;99.90;;;;;;8408397;28;19999;-73
2022/09/06 03:36:54;;;;;;;;;;;20.20;99.90;;;;;;8400171;28;20307;-73
2022/09/06 03:40:56;;;;;;;;;;;20.20;99.90;;;;;;8415136;28;19924;-73
2022/09/06 03:44:58;;;;;;;;;;;20.20;99.90;;;;;;8416117;28;19933;-73
2022/09/06 03:49:00;;;;;;;;;;;20.10;99.90;;;;;;8410044;28;19924;-73
2022/09/06 03:53:02;;;;;;;;;;;20.10;99.90;;;;;;8402757;28;19920;-73
2022/09/06 03:57:04;;;;;;;;;;;20.10;99.90;;;;;;8402748;28;19920;-73
2022/09/06 04:01:06;;;;;;;;;;;20.00;99.90;;;;;;8416035;28;19924;-74
2022/09/06 04:05:09;;;;;;;;;;;20.00;99.90;;;;;;8390012;28;20450;-73
2022/09/06 04:09:10;;;;;;;;;;;20.00;99.90;;;;;;8405013;28;19921;-73
2022/09/06 04:13:12;;;;;;;;;;;19.90;99.90;;;;;;8390832;28;19927;-73
2022/09/06 04:17:14;;;;;;;;;;;19.90;99.90;;;;;;8405589;28;20542;-73
2022/09/06 04:21:15;;;;;;;;;;;19.80;99.90;;;;;;8413482;28;20367;-74
2022/09/06 04:25:17;;;;;;;;;;;19.80;99.90;;;;;;8410925;28;19920;-74
2022/09/06 04:29:18;;;;;;;;;;;19.70;99.90;;;;;;8420870;28;19927;-73
2022/09/06 04:33:24;;;;;;;;;;;19.70;99.90;;;;;;8421165;28;20383;-74
2022/09/06 04:37:26;;;;;;;;;;;19.60;99.90;;;;;;8408528;28;19928;-73
2022/09/06 04:41:27;;;;;;;;;;;19.60;99.90;;;;;;8394323;28;19945;-74
2022/09/06 04:45:29;;;;;;;;;;;19.60;99.90;;;;;;8395403;28;19924;-73
2022/09/06 04:49:31;;;;;;;;;;;19.60;99.90;;;;;;8400979;28;20336;-73
2022/09/06 04:53:32;;;;;;;;;;;19.60;99.90;;;;;;8420094;28;19920;-73
2022/09/06 04:57:34;;;;;;;;;;;19.50;99.90;;;;;;8416351;28;19924;-73
2022/09/06 05:01:36;;;;;;;;;;;19.50;99.90;;;;;;8429094;28;19920;-73
2022/09/06 05:05:37;;;;;;;;;;;19.50;99.90;;;;;;8415838;28;20394;-73
2022/09/06 05:09:39;;;;;;;;;;;19.50;99.90;;;;;;8394449;28;20398;-73
2022/09/06 05:13:41;;;;;;;;;;;19.50;99.90;;;;;;8427614;28;20332;-73
2022/09/06 05:17:43;;;;;;;;;;;19.40;99.90;;;;;;8435667;28;19919;-73
2022/09/06 05:21:44;;;;;;;;;;;19.40;99.90;;;;;;8432293;28;19927;-73
2022/09/06 05:25:47;;;;;;;;;;;19.40;99.90;;;;;;8430549;28;19920;-73
2022/09/06 05:29:48;;;;;;;;;;;19.30;99.90;;;;;;8422468;28;19920;-74
2022/09/06 05:33:50;;;;;;;;;;;19.30;99.90;;;;;;8414591;28;19920;-74
2022/09/06 05:37:52;;;;;;;;;;;19.30;99.90;;;;;;8427248;28;19943;-73
2022/09/06 05:41:54;;;;;;;;;;;19.30;99.90;;;;;;8430156;28;19927;-74
2022/09/06 05:45:55;;;;;;;;;;;19.30;99.90;;;;;;8404446;28;19920;-74
2022/09/06 05:49:58;;;;;;;;;;;19.30;99.90;;;;;;8432915;28;19926;-73
2022/09/06 05:54:00;;;;;;;;;;;19.30;99.90;;;;;;8433281;28;19924;-73
2022/09/06 05:58:01;;;;;;;;;;;19.30;99.90;;;;;;8433815;28;19919;-73
2022/09/06 06:02:04;;;;;;;;;;;19.30;99.90;;;;;;8441132;28;19923;-73
2022/09/06 06:06:08;;;;;;;;;;;19.30;99.90;;;;;;8405813;28;19947;-73
2022/09/06 06:10:10;;;;;;;;;;;19.30;99.90;;;;;;8434935;28;19935;-73
2022/09/06 06:14:11;;;;;;;;;;;19.30;99.90;;;;;;8431943;28;19951;-73
2022/09/06 06:18:13;;;;;;;;;;;19.40;99.90;;;;;;8433948;28;19934;-73
2022/09/06 06:22:15;;;;;;;;;;;19.40;99.90;;;;;;8404709;28;19921;-73
2022/09/06 06:26:17;;;;;;;;;;;19.40;99.90;;;;;;8435946;28;19920;-73
2022/09/06 06:30:18;;;;;;;;;;;19.50;99.90;;;;;;8431160;28;20013;-73
2022/09/06 06:34:20;;;;;;;;;;;19.60;99.90;;;;;;8434097;28;20371;-73
2022/09/06 06:38:22;;;;;;;;;;;19.80;99.90;;;;;;8415682;28;20367;-73
2022/09/06 06:42:24;;;;;;;;;;;19.90;99.90;;;;;;8424898;28;20316;-74
2022/09/06 06:46:27;;;;;;;;;;;20.00;99.90;;;;;;8444059;28;20260;-73
2022/09/06 06:50:28;;;;;;;;;;;20.10;99.90;;;;;;8445453;28;20363;-73
2022/09/06 06:54:30;;;;;;;;;;;20.20;99.90;;;;;;8442731;28;19935;-73
2022/09/06 06:58:32;;;;;;;;;;;20.30;99.90;;;;;;8433540;28;19928;-73
2022/09/06 07:02:33;;;;;;;;;;;20.40;99.90;;;;;;8427616;28;19920;-73
2022/09/06 07:07:04;;;;;;;;;;;20.50;99.90;;;;;;8421952;28;19928;-74
2022/09/06 07:11:26;;;;;;;;;;;20.60;99.90;;;;;;8422200;28;19951;-73
2022/09/06 07:15:28;;;;;;;;;;;20.60;99.90;;;;;;8416051;28;19920;-73
2022/09/06 07:19:29;;;;;;;;;;;20.70;99.90;;;;;;8422301;28;19920;-73
2022/09/06 07:23:52;;;;;;;;;;;20.70;99.90;;;;;;8414033;28;20703;-73
2022/09/06 07:28:09;;;;;;;;;;;20.80;99.90;;;;;;8427987;28;19920;-74
2022/09/06 07:32:11;;;;;;;;;;;20.80;99.90;;;;;;8421745;28;19920;-73
2022/09/06 07:36:13;;;;;;;;;;;20.90;99.90;;;;;;8428952;28;19997;-73
2022/09/06 07:40:15;;;;;;;;;;;20.90;99.90;;;;;;8419326;28;19939;-73
2022/09/06 07:44:16;;;;;;;;;;;21.00;99.90;;;;;;8424928;28;19920;-73
2022/09/06 07:48:18;;;;;;;;;;;21.00;99.90;;;;;;8435771;28;19919;-73
2022/09/06 07:52:20;;;;;;;;;;;21.00;99.90;;;;;;8413609;28;19920;-73
2022/09/06 07:56:41;;;;;;;;;;;21.10;99.90;;;;;;8425504;28;20411;-74
2022/09/06 08:00:43;;;;;;;;;;;21.10;99.90;;;;;;8421514;28;20380;-73
2022/09/06 08:04:44;;;;;;;;;;;21.20;99.90;;;;;;8407806;28;19927;-73
2022/09/06 08:08:52;;;;;;;;;;;21.30;99.90;;;;;;8418069;28;20007;-73
2022/09/06 08:12:56;;;;;;;;;;;21.40;99.90;;;;;;8423444;28;19931;-73
2022/09/06 08:16:58;;;;;;;;;;;21.50;99.90;;;;;;8415948;28;19920;-73
2022/09/06 08:21:10;;;;;;;;;;;21.50;99.90;;;;;;8426766;28;20429;-73
2022/09/06 08:25:13;;;;;;;;;;;21.60;99.90;;;;;;8425450;28;20243;-73
2022/09/06 08:29:14;;;;;;;;;;;21.70;99.90;;;;;;8424700;28;20367;-73
2022/09/06 08:33:20;;;;;;;;;;;21.70;99.90;;;;;;8431749;28;19919;-73
2022/09/06 08:37:22;;;;;;;;;;;21.90;99.90;;;;;;8427575;28;19927;-73
2022/09/06 08:41:26;;;;;;;;;;;22.00;99.90;;;;;;8418046;28;20011;-73
2022/09/06 08:45:28;;;;;;;;;;;22.10;99.90;;;;;;8424328;28;19920;-74
2022/09/06 08:49:31;;;;;;;;;;;22.20;99.90;;;;;;8434814;28;19927;-73
2022/09/06 08:53:36;;;;;;;;;;;22.40;99.90;;;;;;8438296;28;20540;-73
2022/09/06 08:57:58;;;;;;;;;;;22.50;99.90;;;;;;8403327;28;19924;-73
2022/09/06 09:02:11;;;;;;;;;;;22.60;99.90;;;;;;8435812;28;19927;-73
2022/09/06 09:06:13;;;;;;;;;;;22.70;99.90;;;;;;8438091;28;19942;-74
2022/09/06 09:10:18;;;;;;;;;;;22.80;99.90;;;;;;8439845;28;19920;-74
2022/09/06 09:14:21;;;;;;;;;;;22.90;99.90;;;;;;8425258;28;19920;-73
2022/09/06 09:18:25;;;;;;;;;;;22.90;99.90;;;;;;8426785;28;20398;-74
2022/09/06 09:22:27;;;;;;;;;;;23.00;99.90;;;;;;8410115;28;19920;-74
2022/09/06 09:26:33;;;;;;;;;;;23.00;99.90;;;;;;8426749;28;20295;-73
2022/09/06 09:30:51;;;;;;;;;;;23.10;99.90;;;;;;8413372;28;19920;-74
2022/09/06 09:34:53;;;;;;;;;;;23.00;99.90;;;;;;8440297;28;19949;-73
2022/09/06 09:38:55;;;;;;;;;;;23.10;99.90;;;;;;8408840;28;19924;-73
2022/09/06 09:43:08;;;;;;;;;;;23.10;99.90;;;;;;8432478;28;19950;-73
2022/09/06 09:47:21;;;;;;;;;;;23.20;99.90;;;;;;8429983;28;20012;-73
2022/09/06 10:06:33;;;;;;;;;;;23.60;99.90;;;;;;8421896;28;19923;-74
2022/09/06 10:10:56;;;;;;;;;;;23.70;99.90;;;;;;8434928;28;20407;-73
2022/09/06 10:14:58;;;;;;;;;;;23.90;99.90;;;;;;8433103;28;19943;-73
2022/09/06 10:19:20;;;;;;;;;;;24.00;99.90;;;;;;8428611;28;19920;-74
2022/09/06 10:23:50;;;;;;;;;;;24.10;99.90;;;;;;8416213;28;19920;-73
2022/09/06 10:28:32;;;;;;;;;;;24.10;99.90;;;;;;8374120;28;20374;-73
2022/09/06 10:32:46;;;;;;;;;;;24.10;99.90;;;;;;8431242;28;19928;-74
2022/09/06 10:36:51;;;;;;;;;;;24.10;99.90;;;;;;8402884;28;20359;-74
2022/09/06 10:41:05;;;;;;;;;;;24.20;99.90;;;;;;8418250;28;19999;-73
2022/09/06 10:45:14;;;;;;;;;;;24.30;99.90;;;;;;8415168;28;20235;-74
2022/09/06 10:49:18;;;;;;;;;;;24.40;99.90;;;;;;8432057;28;19965;-73
2022/09/06 10:53:32;;;;;;;;;;;24.40;99.90;;;;;;8429077;28;19931;-73
2022/09/06 10:57:39;;;;;;;;;;;24.50;99.90;;;;;;8428866;28;20284;-74
2022/09/06 11:02:19;;;;;;;;;;;24.60;99.90;;;;;;8432203;28;19920;-74
2022/09/06 11:06:26;;;;;;;;;;;24.70;99.90;;;;;;8431013;28;19969;-74
2022/09/06 11:10:30;;;;;;;;;;;24.80;99.90;;;;;;8422161;28;19920;-74
2022/09/06 11:14:33;;;;;;;;;;;24.80;99.90;;;;;;8408095;28;19930;-74
2022/09/06 11:18:43;;;;;;;;;;;24.90;99.90;;;;;;8425873;28;19920;-73
2022/09/06 11:22:57;;;;;;;;;;;25.00;99.90;;;;;;8419801;28;19973;-73
2022/09/06 11:27:11;;;;;;;;;;;25.00;99.90;;;;;;8432892;28;19920;-74
2022/09/06 11:31:20;;;;;;;;;;;25.10;99.90;;;;;;8433436;28;19920;-73
2022/09/06 11:35:41;;;;;;;;;;;25.10;99.90;;;;;;8429826;28;19920;-74
2022/09/06 11:39:43;;;;;;;;;;;25.20;99.90;;;;;;8411754;28;19938;-73
2022/09/06 11:44:06;;;;;;;;;;;25.20;99.90;;;;;;8433674;28;19967;-74
2022/09/06 11:48:23;;;;;;;;;;;25.30;99.90;;;;;;8426529;28;19924;-74
2022/09/06 11:52:43;;;;;;;;;;;25.40;99.90;;;;;;8426887;28;19927;-74
2022/09/06 11:56:45;;;;;;;;;;;25.50;99.90;;;;;;8435912;28;19920;-74
2022/09/06 12:01:05;;;;;;;;;;;25.60;99.90;;;;;;8415553;28;19920;-73
2022/09/06 12:05:08;;;;;;;;;;;25.60;99.90;;;;;;8426310;28;19920;-74
2022/09/06 12:09:27;;;;;;;;;;;25.70;99.90;;;;;;8427830;28;19924;-74
2022/09/06 12:13:32;;;;;;;;;;;25.60;99.90;;;;;;8430041;28;19927;-74
2022/09/06 12:17:54;;;;;;;;;;;25.60;99.90;;;;;;8407822;28;19924;-74
2022/09/06 12:21:56;;;;;;;;;;;25.60;99.90;;;;;;8428280;28;19920;-73
2022/09/06 12:25:58;;;;;;;;;;;25.60;99.90;;;;;;8416287;28;20011;-74
2022/09/06 12:30:03;;;;;;;;;;;25.60;99.90;;;;;;8416373;28;20442;-73
2022/09/06 12:34:18;;;;;;;;;;;25.60;99.90;;;;;;8414833;28;20371;-74
2022/09/06 12:38:23;;;;;;;;;;;25.70;99.90;;;;;;8417218;28;19927;-73
2022/09/06 12:42:25;;;;;;;;;;;25.80;99.90;;;;;;8401825;28;20293;-74
2022/09/06 12:46:28;;;;;;;;;;;25.90;99.90;;;;;;8397445;28;19924;-73
2022/09/06 12:50:30;;;;;;;;;;;25.90;99.90;;;;;;8399491;28;19967;-74
2022/09/06 12:54:32;;;;;;;;;;;26.00;99.90;;;;;;8409997;28;20049;-73
2022/09/06 12:58:34;;;;;;;;;;;26.00;99.90;;;;;;8390314;28;19920;-74
2022/09/06 13:02:39;;;;;;;;;;;26.10;99.90;;;;;;8409236;28;20275;-74
2022/09/06 13:06:44;;;;;;;;;;;26.20;99.90;;;;;;8404226;28;19925;-74
2022/09/06 13:10:46;;;;;;;;;;;26.20;99.90;;;;;;8405918;28;19919;-74
2022/09/06 13:14:50;;;;;;;;;;;26.30;99.90;;;;;;8409123;28;19925;-73
2022/09/06 13:18:53;;;;;;;;;;;26.30;99.90;;;;;;8395998;28;19920;-74
2022/09/06 13:23:05;;;;;;;;;;;26.30;99.90;;;;;;8395560;28;20231;-74
2022/09/06 13:27:22;;;;;;;;;;;26.40;99.90;;;;;;8398096;28;19928;-74
2022/09/06 13:31:25;;;;;;;;;;;26.50;99.90;;;;;;8375996;28;19927;-74
2022/09/06 13:35:28;;;;;;;;;;;26.50;99.90;;;;;;8391501;28;19928;-73
2022/09/06 13:39:32;;;;;;;;;;;26.50;99.90;;;;;;8377188;28;19974;-74
2022/09/06 13:43:47;;;;;;;;;;;26.60;99.90;;;;;;8406952;28;19928;-73
2022/09/06 13:47:49;;;;;;;;;;;26.60;99.90;;;;;;8389335;28;20000;-73
2022/09/06 13:51:52;;;;;;;;;;;26.70;99.90;;;;;;8393721;28;19924;-74
2022/09/06 13:55:53;;;;;;;;;;;26.90;99.90;;;;;;8405560;28;19924;-74
2022/09/06 13:59:55;;;;;;;;;;;27.00;99.90;;;;;;8407837;28;19931;-74
2022/09/06 14:03:57;;;;;;;;;;;27.20;99.90;;;;;;8404587;28;19940;-73
2022/09/06 14:07:58;;;;;;;;;;;27.30;99.90;;;;;;8397056;28;19920;-74
2022/09/06 14:12:19;;;;;;;;;;;27.40;99.90;;;;;;8412370;28;19920;-73
2022/09/06 14:16:20;;;;;;;;;;;27.40;99.90;;;;;;8409442;28;20236;-73
2022/09/06 14:20:22;;;;;;;;;;;27.40;99.90;;;;;;8407457;28;20286;-73
2022/09/06 14:24:23;;;;;;;;;;;27.30;99.90;;;;;;8393244;28;20367;-74
2022/09/06 14:28:28;;;;;;;;;;;27.30;99.90;;;;;;8393008;28;20327;-74
2022/09/06 14:32:30;;;;;;;;;;;27.20;99.90;;;;;;8389019;28;20375;-73
2022/09/06 14:36:33;;;;;;;;;;;27.10;99.90;;;;;;8395416;28;19935;-73
2022/09/06 14:40:35;;;;;;;;;;;27.10;99.90;;;;;;8390896;28;20394;-74
2022/09/06 14:44:37;;;;;;;;;;;27.10;99.90;;;;;;8394668;28;19962;-74
2022/09/06 14:48:39;;;;;;;;;;;27.20;99.90;;;;;;8393023;28;19920;-73
2022/09/06 14:52:43;;;;;;;;;;;27.30;99.90;;;;;;8375031;28;19920;-75
2022/09/06 14:56:45;;;;;;;;;;;27.40;99.90;;;;;;8383598;28;19927;-74
2022/09/06 15:00:48;;;;;;;;;;;27.50;99.90;;;;;;8396250;28;19921;-73
2022/09/06 15:04:50;;;;;;;;;;;27.60;99.90;;;;;;8394154;28;20015;-73
2022/09/06 15:08:52;;;;;;;;;;;27.60;99.90;;;;;;8389878;28;19928;-74
2022/09/06 15:12:58;;;;;;;;;;;27.60;99.90;;;;;;8391586;28;19975;-74
2022/09/06 15:17:02;;;;;;;;;;;27.60;99.90;;;;;;8386169;28;19927;-73
2022/09/06 15:21:08;;;;;;;;;;;27.70;99.90;;;;;;8388987;28;19928;-74
2022/09/06 15:25:10;;;;;;;;;;;27.80;99.90;;;;;;8391309;28;20299;-73
2022/09/06 15:29:12;;;;;;;;;;;27.90;99.90;;;;;;8391684;28;20349;-73
2022/09/06 15:33:14;;;;;;;;;;;28.00;99.90;;;;;;8391437;28;19939;-74
2022/09/06 15:37:16;;;;;;;;;;;28.20;99.90;;;;;;8389902;28;20038;-74
2022/09/06 15:41:19;;;;;;;;;;;28.60;99.90;;;;;;8393568;28;19935;-74
2022/09/06 15:45:20;;;;;;;;;;;28.80;99.90;;;;;;8389618;28;19920;-74
2022/09/06 15:49:24;;;;;;;;;;;28.90;99.90;;;;;;8380728;28;20286;-73
2022/09/06 15:53:28;;;;;;;;;;;28.80;99.90;;;;;;8374375;28;19920;-74
2022/09/06 15:57:30;;;;;;;;;;;28.60;99.90;;;;;;8385055;28;19952;-74
2022/09/06 16:01:35;;;;;;;;;;;28.50;99.90;;;;;;8386803;28;19954;-74
2022/09/06 16:05:36;;;;;;;;;;;28.40;99.90;;;;;;8386173;28;19936;-74
2022/09/06 16:09:59;;;;;;;;;;;28.30;99.90;;;;;;8382912;28;20283;-74
2022/09/06 16:14:02;;;;;;;;;;;28.10;99.90;;;;;;8379240;28;19924;-73
2022/09/06 16:18:04;;;;;;;;;;;27.80;99.90;;;;;;8380977;28;19935;-74
2022/09/06 16:22:06;;;;;;;;;;;27.60;99.90;;;;;;8361150;28;19927;-73
2022/09/06 16:26:08;;;;;;;;;;;27.50;99.90;;;;;;8377487;28;19947;-74
2022/09/06 16:30:10;;;;;;;;;;;27.40;99.90;;;;;;8374841;28;20474;-74
2022/09/06 16:34:12;;;;;;;;;;;27.20;99.90;;;;;;8374241;28;19928;-74
2022/09/06 16:38:14;;;;;;;;;;;27.20;99.90;;;;;;8371614;28;19924;-73
2022/09/06 16:42:16;;;;;;;;;;;27.00;99.90;;;;;;8379815;28;19951;-74
2022/09/06 16:46:20;;;;;;;;;;;26.90;99.90;;;;;;8382643;28;20307;-74
2022/09/06 16:50:22;;;;;;;;;;;26.80;99.90;;;;;;8385439;28;20394;-74
2022/09/06 16:54:23;;;;;;;;;;;26.70;99.90;;;;;;8386389;28;19920;-74
2022/09/06 16:58:26;;;;;;;;;;;26.60;99.90;;;;;;8374112;28;19924;-74
2022/09/06 17:02:28;;;;;;;;;;;26.50;99.90;;;;;;8387147;28;20377;-73
2022/09/06 17:06:31;;;;;;;;;;;26.30;99.90;;;;;;8395291;28;20333;-73
2022/09/06 17:10:36;;;;;;;;;;;26.30;99.90;;;;;;8394049;28;19928;-74
2022/09/06 17:14:37;;;;;;;;;;;26.20;99.90;;;;;;8395265;28;20299;-73
2022/09/06 17:18:39;;;;;;;;;;;26.20;99.90;;;;;;8392716;28;19928;-73
2022/09/06 17:22:41;;;;;;;;;;;26.10;99.90;;;;;;8382446;28;19920;-73
2022/09/06 17:26:42;;;;;;;;;;;26.00;99.90;;;;;;8396957;28;19928;-73
2022/09/06 17:30:44;;;;;;;;;;;26.00;99.90;;;;;;8396141;28;19927;-73
2022/09/06 17:39:50;;;;;;;;;;;25.90;99.90;;;;;;8390116;28;19934;-73
2022/09/06 17:43:53;;;;;;;;;;;25.80;99.90;;;;;;8389441;28;19928;-74
2022/09/06 17:47:55;;;;;;;;;;;25.70;99.90;;;;;;8389173;28;19936;-73
2022/09/06 17:51:57;;;;;;;;;;;25.70;99.90;;;;;;8390517;28;19928;-73
2022/09/06 17:56:02;;;;;;;;;;;25.60;99.90;;;;;;8391683;28;20473;-74
2022/09/06 18:00:04;;;;;;;;;;;25.60;99.90;;;;;;8398032;28;19920;-73
2022/09/06 18:04:07;;;;;;;;;;;25.50;99.90;;;;;;8389225;28;19927;-73
2022/09/06 18:08:08;;;;;;;;;;;25.40;99.90;;;;;;8402827;28;19927;-73
2022/09/06 18:12:10;;;;;;;;;;;25.30;99.90;;;;;;8396949;28;20367;-74
2022/09/06 18:16:13;;;;;;;;;;;25.30;99.90;;;;;;8393218;28;19928;-73
2022/09/06 18:20:14;;;;;;;;;;;25.20;99.90;;;;;;8402827;28;19966;-73
2022/09/06 18:24:16;;;;;;;;;;;25.20;99.90;;;;;;8396948;28;19920;-73
2022/09/06 18:28:18;;;;;;;;;;;25.10;99.90;;;;;;8385372;28;20251;-73
2022/09/06 18:32:20;;;;;;;;;;;25.10;99.90;;;;;;8388797;28;19924;-74
2022/09/06 18:36:22;;;;;;;;;;;25.00;99.90;;;;;;8389081;28;19920;-74
2022/09/06 18:40:24;;;;;;;;;;;25.00;99.90;;;;;;8390755;28;19924;-73
2022/09/06 18:44:29;;;;;;;;;;;25.00;99.90;;;;;;8397396;28;19920;-74
2022/09/06 18:48:33;;;;;;;;;;;24.90;99.90;;;;;;8390580;28;20326;-74
2022/09/06 18:52:37;;;;;;;;;;;24.90;99.90;;;;;;8392367;28;19921;-73
2022/09/06 18:56:39;;;;;;;;;;;24.80;99.90;;;;;;8385624;28;19924;-73
2022/09/06 19:00:40;;;;;;;;;;;24.80;99.90;;;;;;8389700;28;19925;-73
2022/09/06 19:04:42;;;;;;;;;;;24.80;99.90;;;;;;8390236;28;19930;-73
2022/09/06 19:08:45;;;;;;;;;;;24.70;99.90;;;;;;8392724;28;20387;-74
2022/09/06 19:12:47;;;;;;;;;;;24.70;99.90;;;;;;8389556;28;19950;-74
2022/09/06 19:16:53;;;;;;;;;;;24.60;99.90;;;;;;8390808;28;19928;-73
2022/09/06 19:20:58;;;;;;;;;;;24.60;99.90;;;;;;8386347;28;19931;-73
2022/09/06 19:25:00;;;;;;;;;;;24.60;99.90;;;;;;8391711;28;19920;-73
2022/09/06 19:29:03;;;;;;;;;;;24.50;99.90;;;;;;8388200;28;19927;-74
2022/09/06 19:33:05;;;;;;;;;;;24.50;99.90;;;;;;8390776;28;19925;-73
2022/09/06 19:37:06;;;;;;;;;;;24.50;99.90;;;;;;8386053;28;21996;-73
2022/09/06 19:41:09;;;;;;;;;;;24.40;99.90;;;;;;8390405;28;20512;-74
2022/09/06 19:45:11;;;;;;;;;;;24.40;99.90;;;;;;8387492;28;19923;-73
2022/09/06 19:49:18;;;;;;;;;;;24.30;99.90;;;;;;8388352;28;20062;-73
2022/09/06 19:53:19;;;;;;;;;;;24.20;99.90;;;;;;8385886;28;19920;-73
2022/09/06 19:57:21;;;;;;;;;;;24.20;99.90;;;;;;8374916;28;19920;-73
2022/09/06 20:01:24;;;;;;;;;;;24.20;99.90;;;;;;8387745;28;20376;-74
2022/09/06 20:05:25;;;;;;;;;;;24.10;99.90;;;;;;8391858;28;20403;-74
2022/09/06 20:09:27;;;;;;;;;;;24.10;99.90;;;;;;8395316;28;19942;-73
2022/09/06 20:13:29;;;;;;;;;;;24.00;99.90;;;;;;8389779;28;19931;-74
2022/09/06 20:17:31;;;;;;;;;;;24.00;99.90;;;;;;8387585;28;19920;-74
2022/09/06 20:21:34;;;;;;;;;;;24.00;99.90;;;;;;8386086;28;19962;-74
2022/09/06 20:25:36;;;;;;;;;;;24.00;99.90;;;;;;8387592;28;20294;-74
2022/09/06 20:29:38;;;;;;;;;;;24.00;99.90;;;;;;8386308;28;19924;-73
2022/09/06 20:33:40;;;;;;;;;;;24.00;99.90;;;;;;8386648;28;19920;-74
2022/09/06 20:37:44;;;;;;;;;;;24.00;99.90;;;;;;8386715;28;19920;-73
2022/09/06 20:41:45;;;;;;;;;;;23.90;99.90;;;;;;8372363;28;19920;-73
2022/09/06 20:45:48;;;;;;;;;;;23.90;99.90;;;;;;8391321;28;20015;-73
2022/09/06 20:49:49;;;;;;;;;;;23.90;99.90;;;;;;8378664;28;19924;-73
2022/09/06 20:53:52;;;;;;;;;;;23.80;99.90;;;;;;8397524;28;19927;-73
2022/09/06 20:57:54;;;;;;;;;;;23.70;99.90;;;;;;8393092;28;19928;-73
2022/09/06 21:01:55;;;;;;;;;;;23.70;99.90;;;;;;8404491;28;19920;-73
2022/09/06 21:05:57;;;;;;;;;;;23.60;99.90;;;;;;8418638;28;19927;-73
2022/09/06 21:09:59;;;;;;;;;;;23.60;99.90;;;;;;8437949;28;19947;-73
2022/09/06 21:14:01;;;;;;;;;;;23.50;99.90;;;;;;8422458;28;19920;-73
2022/09/06 21:18:03;;;;;;;;;;;23.50;99.90;;;;;;8418574;28;19920;-73
2022/09/06 21:22:05;;;;;;;;;;;23.50;99.90;;;;;;8405148;28;19920;-72
2022/09/06 21:26:08;;;;;;;;;;;23.50;99.90;;;;;;8408228;28;20619;-73
2022/09/06 21:30:10;;;;;;;;;;;23.50;99.90;;;;;;8428671;28;19924;-73
2022/09/06 21:34:12;;;;;;;;;;;23.50;99.90;;;;;;8420469;28;19931;-73
2022/09/06 21:38:17;;;;;;;;;;;23.50;99.90;;;;;;8407794;28;20165;-73
2022/09/06 21:42:19;;;;;;;;;;;23.50;99.90;;;;;;8419794;28;19942;-73
2022/09/06 21:46:21;;;;;;;;;;;23.50;99.90;;;;;;8421376;28;19920;-73
2022/09/06 21:50:23;;;;;;;;;;;23.50;99.90;;;;;;8412522;28;20330;-73
2022/09/06 21:54:25;;;;;;;;;;;23.50;99.90;;;;;;8427990;28;19927;-73
2022/09/06 21:58:26;;;;;;;;;;;23.40;99.90;;;;;;8416244;28;19924;-73
2022/09/06 22:02:28;;;;;;;;;;;23.50;99.90;;;;;;8424759;28;20189;-73
2022/09/06 22:06:31;;;;;;;;;;;23.50;99.90;;;;;;8418962;28;19951;-73
2022/09/06 22:10:33;;;;;;;;;;;23.50;99.90;;;;;;8406873;28;20332;-73
2022/09/06 22:14:34;;;;;;;;;;;23.40;99.90;;;;;;8420964;28;20291;-73
2022/09/06 22:18:36;;;;;;;;;;;23.20;99.90;;;;;;8419764;28;19954;-73
2022/09/06 22:22:38;;;;;;;;;;;22.80;99.90;;;;;;8426551;28;19923;-73
2022/09/06 22:26:40;;;;;;;;;;;22.10;99.90;;;;;;8420638;28;19920;-73
2022/09/06 22:30:42;;;;;;;;;;;21.80;99.90;;;;;;8410410;28;19919;-73
2022/09/06 22:34:44;;;;;;;;;;;21.50;99.90;;;;;;8424947;28;20324;-73
2022/09/06 22:38:46;;;;;;;;;;;21.00;99.90;;;;;;8396256;28;20283;-73
2022/09/06 22:42:48;;;;;;;;;;;20.70;99.90;;;;;;8414935;28;19920;-73
2022/09/06 22:46:49;;;;;;;;;;;20.40;99.90;;;;;;8419959;28;20433;-73
2022/09/06 22:50:51;;;;;;;;;;;20.20;99.90;;;;;;8422096;28;19920;-73
2022/09/06 22:54:53;;;;;;;;;;;20.10;99.90;;;;;;8419291;28;19931;-73
2022/09/06 22:58:54;;;;;;;;;;;20.10;99.90;;;;;;8410116;28;19951;-73
2022/09/06 23:02:56;;;;;;;;;;;20.00;99.90;;;;;;8422696;28;20393;-73
2022/09/06 23:07:01;;;;;;;;;;;20.00;99.90;;;;;;8425435;28;19928;-74
2022/09/06 23:11:07;;;;;;;;;;;20.00;99.90;;;;;;8428386;28;19920;-73
2022/09/06 23:15:09;;;;;;;;;;;19.90;99.90;;;;;;8411828;28;19928;-73
2022/09/06 23:19:11;;;;;;;;;;;19.90;99.90;;;;;;8425561;28;19920;-74
2022/09/06 23:23:12;;;;;;;;;;;19.90;99.90;;;;;;8420228;28;19935;-73
2022/09/06 23:27:14;;;;;;;;;;;20.00;99.90;;;;;;8418546;28;19946;-74
2022/09/06 23:31:16;;;;;;;;;;;20.00;99.90;;;;;;8398997;28;20291;-74
2022/09/06 23:35:18;;;;;;;;;;;20.10;99.90;;;;;;8421927;28;19919;-74
2022/09/06 23:39:19;;;;;;;;;;;20.10;99.90;;;;;;8413562;28;20287;-74
2022/09/06 23:43:21;;;;;;;;;;;20.00;99.90;;;;;;8417890;28;19934;-74
2022/09/06 23:47:23;;;;;;;;;;;20.00;99.90;;;;;;8410399;28;20223;-73
